Time;durP1;ratioP1;P1;durP2;ratioP2;P2;SDS_P1;SDS_P2;PMS_P1;PMS_P2;Temp;Humidity;BMP_temperature;BMP_pressure;BME280_temperature;BME280_humidity;BME280_pressure;Samples;Min_cycle;Max_cycle;Signal;HPM_P1;HPM_P2
2023/04/22 00:04:51;;;;;;;28.35;21.02;;;;;;;6.97;100.00;100820.47;10335422;28;20121;-75
2023/04/22 00:09:52;;;;;;;31.98;21.55;;;;;;;6.96;100.00;100835.78;10334965;28;20058;-75
2023/04/22 00:14:52;;;;;;;45.63;21.30;;;;;;;6.91;100.00;100831.94;10334561;28;20042;-74
2023/04/22 00:19:53;;;;;;;31.92;21.90;;;;;;;6.90;100.00;100824.88;10334995;28;20156;-74
2023/04/22 00:24:53;;;;;;;37.47;25.83;;;;;;;6.85;100.00;100819.19;10318466;28;20438;-75
2023/04/22 00:29:54;;;;;;;35.97;24.50;;;;;;;6.70;100.00;100822.63;10320376;28;20585;-75
2023/04/22 00:34:56;;;;;;;39.05;26.63;;;;;;;6.66;100.00;100821.25;10335527;28;20097;-75
2023/04/22 00:39:56;;;;;;;37.92;25.20;;;;;;;6.62;100.00;100825.31;10335473;28;20030;-74
2023/04/22 00:44:57;;;;;;;39.83;24.65;;;;;;;6.58;100.00;100825.84;10334650;28;20460;-74
2023/04/22 00:49:57;;;;;;;31.73;25.30;;;;;;;6.50;100.00;100826.69;10301752;28;20093;-74
2023/04/22 00:54:58;;;;;;;42.50;26.92;;;;;;;6.43;100.00;100828.41;10335440;28;20104;-75
2023/04/22 00:59:58;;;;;;;35.80;26.70;;;;;;;6.35;100.00;100831.97;10333127;28;20478;-74
2023/04/22 01:04:59;;;;;;;37.72;29.98;;;;;;;6.39;100.00;100830.59;10335705;28;20122;-75
2023/04/22 01:10:01;;;;;;;39.20;27.13;;;;;;;6.37;100.00;100831.78;10317662;28;20030;-75
2023/04/22 01:15:02;;;;;;;44.33;28.98;;;;;;;6.26;100.00;100817.69;10317957;28;20026;-75
2023/04/22 01:20:03;;;;;;;41.25;29.15;;;;;;;6.27;100.00;100816.66;10324561;28;20042;-74
2023/04/22 01:25:03;;;;;;;44.67;33.42;;;;;;;6.46;100.00;100823.53;10321979;28;20030;-75
2023/04/22 01:30:06;;;;;;;47.65;30.40;;;;;;;6.43;100.00;100823.88;10332830;28;20030;-74
2023/04/22 01:35:07;;;;;;;48.33;30.70;;;;;;;6.27;100.00;100822.06;10315331;28;20034;-74
2023/04/22 01:40:08;;;;;;;59.92;33.20;;;;;;;6.19;100.00;100814.03;10333196;28;20061;-74
2023/04/22 01:45:09;;;;;;;40.95;31.25;;;;;;;6.10;100.00;100806.97;10331244;28;20509;-74
2023/04/22 01:50:09;;;;;;;45.63;32.13;;;;;;;6.06;100.00;100805.63;10331425;28;20101;-74
2023/04/22 01:55:10;;;;;;;41.83;31.45;;;;;;;6.02;100.00;100813.19;10331551;28;20552;-75
2023/04/22 02:00:11;;;;;;;46.40;33.38;;;;;;;6.01;100.00;100816.06;10331100;28;20211;-74
2023/04/22 02:05:11;;;;;;;46.35;30.50;;;;;;;5.93;100.00;100816.06;10314798;28;20470;-74
2023/04/22 02:10:12;;;;;;;53.22;35.83;;;;;;;5.85;100.00;100810.66;10332068;28;20045;-74
2023/04/22 02:15:12;;;;;;;49.67;34.25;;;;;;;5.84;100.00;100815.22;10313891;28;20117;-74
2023/04/22 02:20:12;;;;;;;56.55;34.88;;;;;;;5.85;100.00;100810.66;10332485;28;20065;-75
2023/04/22 02:25:13;;;;;;;48.80;33.53;;;;;;;5.81;100.00;100805.63;10332072;28;20129;-74
2023/04/22 02:30:13;;;;;;;50.22;34.92;;;;;;;5.77;100.00;100798.88;10331735;28;20041;-74
2023/04/22 02:35:14;;;;;;;52.05;35.35;;;;;;;5.75;100.00;100795.56;10329830;28;20046;-74
2023/04/22 02:40:14;;;;;;;50.42;33.30;;;;;;;5.72;100.00;100795.88;10329628;28;20034;-74
2023/04/22 02:45:15;;;;;;;58.38;39.05;;;;;;;5.73;100.00;100794.03;10330368;28;20497;-74
2023/04/22 02:50:15;;;;;;;54.08;37.55;;;;;;;5.80;100.00;100787.81;10311992;28;20078;-74
2023/04/22 02:55:16;;;;;;;61.03;37.90;;;;;;;5.81;100.00;100792.19;10330922;28;20038;-74
2023/04/22 03:00:16;;;;;;;59.58;40.72;;;;;;;5.80;100.00;100777.06;10334349;28;20085;-74
2023/04/22 03:05:16;;;;;;;59.08;37.97;;;;;;;5.83;100.00;100779.41;10329639;28;20085;-74
2023/04/22 03:10:17;;;;;;;67.75;38.22;;;;;;;5.90;100.00;100773.34;10330321;28;20069;-75
2023/04/22 03:15:17;;;;;;;58.05;40.88;;;;;;;5.94;100.00;100767.53;10328518;28;20395;-74
2023/04/22 03:20:18;;;;;;;61.58;41.40;;;;;;;6.02;100.00;100769.34;10312990;28;20038;-74
2023/04/22 03:25:19;;;;;;;72.03;44.45;;;;;;;6.10;100.00;100757.75;10312681;28;20493;-74
2023/04/22 03:30:20;;;;;;;61.67;39.20;;;;;;;6.24;100.00;100762.41;10330681;28;20128;-74
2023/04/22 03:35:20;;;;;;;63.10;42.28;;;;;;;6.33;100.00;100755.16;10332519;28;20034;-74
2023/04/22 03:40:21;;;;;;;80.03;47.85;;;;;;;6.36;100.00;100747.56;10328886;28;20038;-74
2023/04/22 03:45:21;;;;;;;71.75;47.97;;;;;;;6.38;100.00;100745.56;10329262;28;20077;-74
2023/04/22 03:50:22;;;;;;;76.70;49.22;;;;;;;6.40;100.00;100745.38;10327943;28;20074;-74
2023/04/22 03:55:22;;;;;;;81.65;45.25;;;;;;;6.42;100.00;100730.75;10328692;28;20038;-75
2023/04/22 04:00:22;;;;;;;75.03;46.63;;;;;;;6.45;100.00;100735.78;10331843;28;20125;-74
2023/04/22 04:05:23;;;;;;;68.88;46.28;;;;;;;6.45;100.00;100722.31;10336817;28;20520;-74
2023/04/22 04:10:23;;;;;;;68.35;43.60;;;;;;;6.45;100.00;100716.94;10335318;28;20126;-74
2023/04/22 04:15:24;;;;;;;83.88;49.33;;;;;;;6.45;100.00;100719.63;10336097;28;20478;-74
2023/04/22 04:20:24;;;;;;;71.63;47.25;;;;;;;6.42;100.00;100714.59;10335838;28;20477;-74
2023/04/22 04:25:24;;;;;;;68.97;47.47;;;;;;;6.38;100.00;100709.72;10335045;28;20121;-74
2023/04/22 04:30:25;;;;;;;76.80;44.85;;;;;;;6.34;100.00;100708.41;10336097;28;20113;-75
2023/04/22 04:35:27;;;;;;;73.45;49.70;;;;;;;6.32;100.00;100711.28;10334745;28;20034;-74
2023/04/22 04:40:28;;;;;;;84.10;50.90;;;;;;;6.37;100.00;100718.81;10335426;28;20106;-74
2023/04/22 04:45:29;;;;;;;69.35;49.97;;;;;;;6.45;100.00;100716.94;10317572;28;20031;-74
2023/04/22 04:50:30;;;;;;;73.47;47.88;;;;;;;6.51;100.00;100710.03;10319635;28;20042;-74
2023/04/22 04:55:30;;;;;;;81.03;47.65;;;;;;;6.59;100.00;100701.06;10336194;28;20478;-74
2023/04/22 05:00:31;;;;;;;74.57;49.55;;;;;;;6.66;100.00;100692.09;10335948;28;20085;-74
2023/04/22 05:05:31;;;;;;;74.68;49.90;;;;;;;6.73;100.00;100687.72;10334577;28;20073;-74
2023/04/22 05:10:31;;;;;;;74.45;47.63;;;;;;;6.81;100.00;100677.91;10332255;28;20022;-74
2023/04/22 05:15:32;;;;;;;80.30;48.08;;;;;;;6.88;100.00;100687.75;10333695;28;20130;-74
2023/04/22 05:20:32;;;;;;;72.53;48.80;;;;;;;6.92;100.00;100693.63;10316764;28;20041;-74
2023/04/22 05:25:33;;;;;;;81.97;51.92;;;;;;;6.95;100.00;100706.72;10332536;28;20050;-74
2023/04/22 05:30:33;;;;;;;78.78;48.55;;;;;;;7.02;100.00;100704.16;10333936;28;20034;-74
2023/04/22 05:35:34;;;;;;;76.90;48.60;;;;;;;7.14;100.00;100713.50;10333589;28;20077;-74
2023/04/22 05:40:34;;;;;;;71.00;47.05;;;;;;;7.23;100.00;100713.25;10331536;28;20042;-75
2023/04/22 05:45:35;;;;;;;79.95;49.15;;;;;;;7.35;100.00;100712.84;10315216;28;20054;-75
2023/04/22 05:50:35;;;;;;;78.55;49.83;;;;;;;7.40;100.00;100721.19;10331092;28;20068;-74
2023/04/22 05:55:36;;;;;;;68.70;48.60;;;;;;;7.47;100.00;100711.41;10332564;28;20048;-74
2023/04/22 06:00:36;;;;;;;71.28;45.33;;;;;;;7.61;100.00;100707.06;10331208;28;20049;-75
2023/04/22 06:05:36;;;;;;;71.85;47.80;;;;;;;7.79;100.00;100706.72;10333115;28;20061;-75
2023/04/22 06:10:37;;;;;;;68.05;44.65;;;;;;;7.89;100.00;100696.50;10331963;28;20041;-75
2023/04/22 06:15:37;;;;;;;67.03;44.90;;;;;;;7.88;100.00;100692.09;10314284;28;20067;-75
2023/04/22 06:20:38;;;;;;;61.45;43.22;;;;;;;7.99;100.00;100694.34;10330394;28;20470;-75
2023/04/22 06:25:38;;;;;;;69.65;42.47;;;;;;;8.19;100.00;100678.44;10330176;28;20030;-75
2023/04/22 06:30:38;;;;;;;64.88;45.25;;;;;;;8.38;100.00;100677.88;10331394;28;20509;-75
2023/04/22 06:35:39;;;;;;;71.90;44.55;;;;;;;8.48;100.00;100671.34;10331456;28;20129;-75
2023/04/22 06:40:39;;;;;;;66.32;44.85;;;;;;;8.64;100.00;100681.09;10329872;28;20534;-75
2023/04/22 06:45:41;;;;;;;52.63;41.10;;;;;;;8.96;100.00;100677.91;10330189;28;20046;-75
2023/04/22 06:50:41;;;;;;;59.45;43.22;;;;;;;9.26;100.00;100680.50;10252265;28;20067;-74
2023/04/22 06:55:41;;;;;;;59.47;42.67;;;;;;;9.41;100.00;100670.44;10289076;28;20043;-75
2023/04/22 07:00:42;;;;;;;67.00;43.90;;;;;;;9.59;100.00;100658.31;10272558;28;20039;-75
2023/04/22 07:05:44;;;;;;;49.03;37.70;;;;;;;9.75;100.00;100658.00;10291434;28;20066;-80
2023/04/22 07:10:44;;;;;;;46.85;37.17;;;;;;;10.07;100.00;100672.75;10290468;28;20059;-77
2023/04/22 07:15:45;;;;;;;52.40;37.50;;;;;;;10.40;100.00;100666.69;10289643;28;20203;-75
2023/04/22 07:20:45;;;;;;;47.22;36.53;;;;;;;10.78;100.00;100663.47;10272611;28;20121;-76
2023/04/22 07:25:46;;;;;;;57.08;38.28;;;;;;;11.67;100.00;100665.81;10272826;28;20081;-77
2023/04/22 07:30:47;;;;;;;49.13;34.88;;;;;;;11.90;100.00;100672.72;10244728;28;20051;-76
2023/04/22 07:35:47;;;;;;;41.08;33.50;;;;;;;11.75;100.00;100681.06;10334266;28;20034;-76
2023/04/22 07:40:48;;;;;;;44.03;32.72;;;;;;;11.92;100.00;100689.63;10320855;28;20049;-76
2023/04/22 07:45:48;;;;;;;41.63;31.90;;;;;;;13.21;100.00;100675.06;10336217;28;20034;-76
2023/04/22 07:50:49;;;;;;;36.28;30.92;;;;;;;14.90;100.00;100667.44;10368072;28;20152;-77
2023/04/22 07:55:50;;;;;;;32.97;24.48;;;;;;;14.85;100.00;100653.66;10327725;28;20045;-77
2023/04/22 08:00:50;;;;;;;21.60;19.17;;;;;;;14.73;100.00;100628.22;10359422;28;20121;-77
2023/04/22 08:05:51;;;;;;;26.27;18.60;;;;;;;14.01;100.00;100637.09;10343385;28;20473;-77
2023/04/22 08:10:51;;;;;;;22.05;16.50;;;;;;;13.39;100.00;100625.34;10358440;28;20085;-77
2023/04/22 08:15:51;;;;;;;20.42;15.35;;;;;;;13.23;100.00;100632.97;10358543;28;20113;-77
2023/04/22 08:20:52;;;;;;;22.13;15.43;;;;;;;13.39;100.00;100631.63;10376316;28;20030;-77
2023/04/22 08:25:52;;;;;;;19.23;14.45;;;;;;;13.85;100.00;100630.34;10342614;28;20133;-78
2023/04/22 08:30:53;;;;;;;19.77;14.85;;;;;;;14.92;100.00;100637.19;10339758;28;20030;-78
2023/04/22 08:35:53;;;;;;;16.15;13.88;;;;;;;16.88;100.00;100634.78;10370618;28;20148;-78
2023/04/22 08:40:58;;;;;;;14.95;12.70;;;;;;;18.06;100.00;100618.31;10374830;28;20034;-78
2023/04/22 08:45:58;;;;;;;17.65;13.05;;;;;;;16.86;100.00;100625.16;10355621;28;20038;-80
2023/04/22 08:50:59;;;;;;;13.70;11.15;;;;;;;16.73;100.00;100618.06;10375033;28;20054;-81
2023/04/22 08:56:01;;;;;;;15.82;11.65;;;;;;;17.30;100.00;100607.06;10357601;28;20046;-81
2023/04/22 09:01:01;;;;;;;12.02;10.63;;;;;;;17.65;100.00;100589.50;10357401;28;20457;-81
2023/04/22 09:06:05;;;;;;;7.78;7.18;;;;;;;16.32;100.00;100576.28;10380909;28;20112;-80
2023/04/22 09:11:05;;;;;;;11.48;9.43;;;;;;;15.35;100.00;100568.72;10341932;28;20507;-80
2023/04/22 09:16:06;;;;;;;10.98;9.80;;;;;;;14.50;100.00;100552.66;10373897;28;20048;-80
2023/04/22 09:21:06;;;;;;;15.93;11.63;;;;;;;14.09;100.00;100573.31;10340784;28;20061;-81
2023/04/22 09:26:07;;;;;;;14.43;11.05;;;;;;;14.10;100.00;100570.38;10339760;28;20092;-82
2023/04/22 09:31:15;;;;;;;23.77;10.65;;;;;;;14.21;100.00;100578.84;10340193;28;20030;-81
2023/04/22 09:36:15;;;;;;;17.95;10.95;;;;;;;14.18;100.00;100591.00;10363612;28;20026;-79
2023/04/22 09:41:16;;;;;;;10.10;8.88;;;;;;;14.32;100.00;100588.94;10359988;28;20069;-80
2023/04/22 09:46:16;;;;;;;10.77;9.20;;;;;;;14.54;100.00;100611.09;10355811;28;20484;-80
2023/04/22 09:51:17;;;;;;;9.50;8.25;;;;;;;15.05;100.00;100615.16;10314736;28;20053;-80
2023/04/22 09:56:18;;;;;;;14.38;10.00;;;;;;;15.41;100.00;100632.41;10314608;28;20128;-80
2023/04/22 10:01:19;;;;;;;13.48;9.30;;;;;;;15.90;100.00;100633.88;10314787;28;20126;-80
2023/04/22 10:06:20;;;;;;;14.38;10.73;;;;;;;16.32;100.00;100625.47;10330632;28;20121;-79
2023/04/22 10:11:20;;;;;;;14.35;9.23;;;;;;;16.40;100.00;100621.50;10329415;28;20044;-80
2023/04/22 10:16:21;;;;;;;8.30;7.32;;;;;;;16.12;100.00;100619.59;10297395;28;20042;-80
2023/04/22 10:21:22;;;;;;;9.85;8.13;;;;;;;15.71;100.00;100622.25;10297975;28;20031;-80
2023/04/22 10:26:42;;;;;;;13.30;9.13;;;;;;;15.25;100.00;100623.88;10313862;28;20095;-80
2023/04/22 10:32:05;;;;;;;19.95;11.05;;;;;;;14.86;100.00;100620.69;10313949;28;20466;-80
2023/04/22 10:37:08;;;;;;;14.85;10.55;;;;;;;14.79;100.00;100636.31;10337484;28;20038;-80
2023/04/22 10:42:09;;;;;;;11.32;10.02;;;;;;;14.55;100.00;100649.03;10315943;28;20046;-81
2023/04/22 10:47:09;;;;;;;13.07;10.30;;;;;;;14.25;100.00;100640.78;10329374;28;20065;-83
2023/04/22 10:52:12;;;;;;;13.85;11.07;;;;;;;14.14;100.00;100619.78;10370605;28;20128;-82
2023/04/22 10:57:13;;;;;;;26.15;16.10;;;;;;;13.99;100.00;100617.41;10321484;28;20449;-81
2023/04/22 11:02:14;;;;;;;26.23;20.65;;;;;;;13.59;100.00;100625.16;10337211;28;20038;-80
2023/04/22 11:07:28;;;;;;;28.73;20.58;;;;;;;13.12;100.00;100635.59;10345790;28;20041;-82
2023/04/22 11:12:37;;;;;;;27.17;18.63;;;;;;;12.90;100.00;100626.97;10360751;28;20122;-79
2023/04/22 11:17:39;;;;;;;36.00;20.23;;;;;;;12.75;100.00;100624.53;10378432;28;20437;-79
2023/04/22 11:22:47;;;;;;;31.25;23.25;;;;;;;12.42;100.00;100654.59;10284291;28;20105;-77
2023/04/22 11:27:47;;;;;;;35.47;23.15;;;;;;;12.08;100.00;100667.47;10345418;28;20374;-79
2023/04/22 11:32:52;;;;;;;30.48;23.30;;;;;;;11.99;100.00;100671.44;10356625;28;20033;-78
2023/04/22 11:38:11;;;;;;;31.65;23.20;;;;;;;11.93;100.00;100647.88;10354528;28;20029;-77
2023/04/22 11:43:11;;;;;;;33.30;23.95;;;;;;;11.83;100.00;100640.13;10377277;28;20180;-76
2023/04/22 11:48:13;;;;;;;31.27;22.88;;;;;;;11.73;100.00;100628.91;10376977;28;20238;-75
2023/04/22 11:53:17;;;;;;;28.35;21.23;;;;;;;11.62;100.00;100654.78;10343272;28;20036;-76
2023/04/22 11:58:27;;;;;;;37.15;26.70;;;;;;;11.32;100.00;100638.13;10359571;28;20377;-76
2023/04/22 12:03:28;;;;;;;39.00;24.73;;;;;;;11.23;100.00;100655.63;10343848;28;20041;-77
2023/04/22 12:08:38;;;;;;;42.45;25.35;;;;;;;11.38;100.00;100629.16;10358349;28;20042;-77
2023/04/22 12:13:43;;;;;;;30.33;26.35;;;;;;;11.35;100.00;100659.38;10342398;28;20092;-76
2023/04/22 12:18:46;;;;;;;37.60;26.27;;;;;;;11.46;100.00;100639.78;10368036;28;20636;-77
2023/04/22 12:24:15;;;;;;;44.92;27.50;;;;;;;11.53;100.00;100620.81;10376960;28;20033;-77
2023/04/22 12:29:15;;;;;;;42.30;31.08;;;;;;;11.54;100.00;100622.47;10365704;28;20042;-79
2023/04/22 12:34:15;;;;;;;44.35;29.33;;;;;;;11.47;100.00;100622.47;10341178;28;20057;-78
2023/04/22 12:39:16;;;;;;;40.38;29.83;;;;;;;11.67;100.00;100625.16;10374189;28;20038;-78
2023/04/22 12:44:16;;;;;;;36.47;29.00;;;;;;;11.97;100.00;100609.25;10356087;28;20041;-80
2023/04/22 12:49:17;;;;;;;40.80;28.08;;;;;;;11.99;100.00;100617.16;10356988;28;20170;-78
2023/04/22 12:54:18;;;;;;;37.05;27.10;;;;;;;11.93;100.00;100615.31;10339965;28;20077;-77
2023/04/22 12:59:19;;;;;;;39.75;29.23;;;;;;;11.96;100.00;100623.84;10356457;28;20033;-78
2023/04/22 13:04:20;;;;;;;48.08;31.67;;;;;;;11.69;100.00;100635.78;10340222;28;20038;-78
2023/04/22 13:09:22;;;;;;;41.65;28.48;;;;;;;11.53;100.00;100656.06;10356336;28;20108;-76
2023/04/22 13:14:23;;;;;;;39.78;28.98;;;;;;;11.48;100.00;100659.38;10345534;28;20080;-78
2023/04/22 13:19:24;;;;;;;45.03;32.95;;;;;;;11.48;100.00;100645.00;10373296;28;20133;-78
2023/04/22 13:24:25;;;;;;;43.75;30.23;;;;;;;11.50;100.00;100646.44;10341730;28;20046;-77
2023/04/22 13:29:25;;;;;;;48.10;31.60;;;;;;;11.54;100.00;100652.28;10341394;28;20045;-78
2023/04/22 13:34:26;;;;;;;43.35;30.05;;;;;;;11.63;100.00;100643.72;10322009;28;20121;-78
2023/04/22 13:39:26;;;;;;;37.80;29.05;;;;;;;11.65;100.00;100648.94;10372852;28;20121;-78
2023/04/22 13:44:27;;;;;;;44.85;34.15;;;;;;;11.63;100.00;100660.00;10338333;28;20049;-78
2023/04/22 13:49:27;;;;;;;54.53;34.83;;;;;;;11.60;100.00;100651.44;10335474;28;20104;-76
2023/04/22 13:54:28;;;;;;;46.95;35.53;;;;;;;11.54;100.00;100644.16;10354406;28;20041;-78
2023/04/22 13:59:29;;;;;;;59.70;36.78;;;;;;;11.51;100.00;100647.28;10354354;28;20096;-79
2023/04/22 14:04:30;;;;;;;50.80;34.85;;;;;;;11.39;100.00;100657.91;10354096;28;20057;-79
2023/04/22 14:09:30;;;;;;;46.33;33.38;;;;;;;11.35;100.00;100665.63;10371455;28;20049;-79
2023/04/22 14:14:31;;;;;;;47.20;35.20;;;;;;;11.30;100.00;100665.44;10370668;28;20572;-78
2023/04/22 14:19:31;;;;;;;56.58;36.50;;;;;;;11.33;100.00;100675.03;10354028;28;20045;-77
2023/04/22 14:24:32;;;;;;;54.88;36.17;;;;;;;11.34;100.00;100680.25;10337030;28;20133;-78
2023/04/22 14:29:33;;;;;;;46.45;32.40;;;;;;;11.29;100.00;100684.63;10356548;28;20049;-77
2023/04/22 14:34:33;;;;;;;46.72;32.15;;;;;;;11.12;100.00;100686.91;10370669;28;20129;-76
2023/04/22 14:39:34;;;;;;;43.28;30.50;;;;;;;11.01;100.00;100698.31;10320740;28;20052;-77
2023/04/22 14:44:35;;;;;;;53.70;34.40;;;;;;;11.00;100.00;100705.63;10331143;28;20034;-77
2023/04/22 14:49:35;;;;;;;46.45;34.92;;;;;;;10.88;100.00;100710.81;10255572;28;20061;-78
2023/04/22 14:54:36;;;;;;;57.08;37.40;;;;;;;10.85;100.00;100708.53;10349864;28;20172;-78
2023/04/22 14:59:36;;;;;;;60.63;37.67;;;;;;;10.79;100.00;100722.88;10353650;28;20038;-78
2023/04/22 15:04:36;;;;;;;49.88;37.05;;;;;;;10.77;100.00;100718.69;10370620;28;20038;-78
2023/04/22 15:09:37;;;;;;;61.38;39.05;;;;;;;10.75;100.00;100710.75;10353299;28;20487;-77
2023/04/22 15:14:37;;;;;;;68.00;39.35;;;;;;;10.74;100.00;100700.97;10336312;28;20121;-79
2023/04/22 15:19:38;;;;;;;57.13;39.20;;;;;;;10.65;100.00;100707.59;10369310;28;20049;-78
2023/04/22 15:24:39;;;;;;;58.05;37.08;;;;;;;10.60;100.00;100699.28;10353181;28;20123;-79
2023/04/22 15:29:43;;;;;;;63.55;38.55;;;;;;;10.67;100.00;100695.53;10353790;28;20464;-79
2023/04/22 15:34:44;;;;;;;58.97;37.92;;;;;;;11.06;100.00;100687.72;10340873;28;20045;-78
2023/04/22 15:39:44;;;;;;;57.80;37.65;;;;;;;11.48;100.00;100683.78;10336973;28;20041;-79
2023/04/22 15:44:45;;;;;;;65.47;40.17;;;;;;;11.77;100.00;100689.81;10338395;28;20439;-80
2023/04/22 15:49:45;;;;;;;63.50;34.20;;;;;;;11.90;100.00;100684.44;10352865;28;20057;-81
2023/04/22 15:54:45;;;;;;;56.20;35.83;;;;;;;12.09;100.00;100690.81;10353986;28;20033;-80
2023/04/22 15:59:46;;;;;;;44.50;28.85;;;;;;;12.21;100.00;100691.84;10360486;28;20042;-81
2023/04/22 16:04:46;;;;;;;47.33;30.27;;;;;;;12.28;100.00;100681.81;10328224;28;20134;-82
2023/04/22 16:09:47;;;;;;;45.30;29.15;;;;;;;12.39;100.00;100695.78;10350475;28;20040;-83
2023/04/22 16:14:47;;;;;;;42.72;28.98;;;;;;;12.53;100.00;100705.53;10377514;28;20042;-82
2023/04/22 16:19:48;;;;;;;39.72;28.25;;;;;;;12.50;100.00;100708.66;10377852;28;20064;-83
2023/04/22 16:24:48;;;;;;;49.70;28.50;;;;;;;12.55;100.00;100715.13;10358735;28;20573;-82
2023/04/22 16:29:48;;;;;;;35.00;25.92;;;;;;;12.84;100.00;100709.38;10358785;28;20034;-82
2023/04/22 16:34:49;;;;;;;46.88;27.85;;;;;;;12.75;100.00;100711.50;10376497;28;20150;-84
2023/04/22 16:39:50;;;;;;;49.90;25.85;;;;;;;12.56;100.00;100721.38;10358539;28;20129;-83
2023/04/22 16:44:50;;;;;;;35.85;22.92;;;;;;;12.42;100.00;100711.63;10391588;28;20053;-83
2023/04/22 16:49:51;;;;;;;32.58;21.58;;;;;;;12.43;100.00;100705.16;10344356;28;20061;-82
2023/04/22 16:54:51;;;;;;;35.80;22.13;;;;;;;12.37;100.00;100692.44;10325903;28;20129;-83
2023/04/22 16:59:52;;;;;;;36.20;23.40;;;;;;;12.41;100.00;100699.09;10341349;28;20072;-82
2023/04/22 17:04:52;;;;;;;29.83;20.15;;;;;;;12.12;100.00;100709.41;10357695;28;20117;-82
2023/04/22 17:09:52;;;;;;;32.25;21.55;;;;;;;11.83;100.00;100711.50;10374164;28;20102;-83
2023/04/22 17:14:53;;;;;;;32.63;24.67;;;;;;;11.59;100.00;100710.28;10371512;28;20484;-83
2023/04/22 17:19:53;;;;;;;27.85;21.42;;;;;;;11.44;100.00;100711.53;10341466;28;20042;-84
2023/04/22 17:24:55;;;;;;;37.03;21.00;;;;;;;11.27;100.00;100705.69;10356901;28;20184;-82
2023/04/22 17:29:56;;;;;;;33.40;22.90;;;;;;;11.18;100.00;100696.91;10356967;28;20026;-84
2023/04/22 17:34:56;;;;;;;31.02;21.95;;;;;;;11.07;100.00;100697.50;10374339;28;20124;-85
2023/04/22 17:39:56;;;;;;;39.53;23.10;;;;;;;10.98;100.00;100707.72;10340192;28;20040;-82
2023/04/22 17:44:57;;;;;;;38.90;23.48;;;;;;;10.90;100.00;100703.31;10337553;28;20030;-82
2023/04/22 17:49:57;;;;;;;47.58;26.20;;;;;;;10.84;100.00;100709.53;10374514;28;20096;-84
2023/04/22 17:54:58;;;;;;;35.42;25.58;;;;;;;10.75;100.00;100708.06;10355721;28;20042;-84
2023/04/22 17:59:58;;;;;;;44.90;25.60;;;;;;;10.63;100.00;100713.25;10338674;28;20111;-83
2023/04/22 18:04:59;;;;;;;38.30;24.00;;;;;;;10.52;100.00;100723.81;10323418;28;20038;-83
2023/04/22 18:09:59;;;;;;;36.28;24.45;;;;;;;10.41;100.00;100723.34;10372435;28;20030;-84
2023/04/22 18:15:00;;;;;;;51.53;28.05;;;;;;;10.36;100.00;100716.84;10371858;28;20030;-84
2023/04/22 18:20:00;;;;;;;39.63;26.45;;;;;;;10.28;100.00;100717.88;10337999;28;20033;-80
2023/04/22 18:25:01;;;;;;;52.67;30.10;;;;;;;10.21;100.00;100727.75;10322010;28;20037;-81
2023/04/22 18:30:01;;;;;;;45.42;27.35;;;;;;;10.09;100.00;100723.97;10354222;28;20030;-85
2023/04/22 18:35:02;;;;;;;50.60;28.33;;;;;;;9.95;100.00;100733.84;10371830;28;20128;-84
2023/04/22 18:40:04;;;;;;;42.53;26.00;;;;;;;9.83;100.00;100733.56;10353492;28;20100;-85
2023/04/22 18:45:05;;;;;;;46.15;26.40;;;;;;;9.72;100.00;100748.44;10358967;28;20042;-82
2023/04/22 18:50:06;;;;;;;45.47;25.00;;;;;;;9.57;100.00;100750.41;10357879;28;20050;-83
2023/04/22 18:55:07;;;;;;;38.92;25.58;;;;;;;9.43;100.00;100767.53;10337152;28;20033;-83
2023/04/22 19:00:08;;;;;;;40.55;25.85;;;;;;;9.29;100.00;100774.69;10370909;28;20041;-83
2023/04/22 19:05:08;;;;;;;41.80;25.02;;;;;;;9.14;100.00;100779.28;10370700;28;20057;-82
2023/04/22 19:10:09;;;;;;;45.75;28.13;;;;;;;8.97;100.00;100778.69;10370465;28;20084;-82
2023/04/22 19:15:10;;;;;;;41.75;27.45;;;;;;;8.84;100.00;100785.63;10338679;28;20042;-81
2023/04/22 19:20:10;;;;;;;37.72;27.10;;;;;;;8.70;100.00;100783.75;10345918;28;20041;-82
2023/04/22 19:25:11;;;;;;;37.28;26.85;;;;;;;8.56;100.00;100793.56;10370600;28;20046;-83
2023/04/22 19:30:12;;;;;;;40.67;26.23;;;;;;;8.49;100.00;100791.78;10354258;28;20121;-83
2023/04/22 19:35:15;;;;;;;50.63;29.00;;;;;;;8.36;100.00;100792.41;10360416;28;20074;-82
2023/04/22 19:40:15;;;;;;;57.13;34.15;;;;;;;8.30;100.00;100793.16;10360983;28;20060;-83
2023/04/22 19:45:15;;;;;;;50.58;32.17;;;;;;;8.28;100.00;100790.63;10359866;28;20045;-81
2023/04/22 19:50:17;;;;;;;54.65;32.15;;;;;;;8.23;100.00;100792.19;10354734;28;20057;-82
2023/04/22 19:55:17;;;;;;;50.10;30.85;;;;;;;8.23;100.00;100786.81;10378300;28;20121;-82
2023/04/22 20:00:19;;;;;;;51.83;32.55;;;;;;;8.18;100.00;100783.84;10359674;28;20124;-83
2023/04/22 20:05:20;;;;;;;58.75;36.88;;;;;;;8.16;100.00;100781.31;10343841;28;20034;-84
2023/04/22 20:10:21;;;;;;;72.55;35.58;;;;;;;8.19;100.00;100785.50;10359277;28;20041;-83
2023/04/22 20:15:22;;;;;;;68.82;36.67;;;;;;;8.16;100.00;100784.84;10326671;28;20091;-83
2023/04/22 20:20:22;;;;;;;56.08;35.45;;;;;;;8.16;100.00;100781.31;10376533;28;20169;-81
2023/04/22 20:25:23;;;;;;;52.40;35.70;;;;;;;8.07;100.00;100767.09;10358660;28;20068;-83
2023/04/22 20:30:24;;;;;;;63.65;35.97;;;;;;;8.08;100.00;100763.38;10359201;28;20034;-81
2023/04/22 20:35:24;;;;;;;65.00;36.95;;;;;;;8.08;100.00;100751.75;10359191;28;20046;-83
2023/04/22 20:40:25;;;;;;;52.50;35.45;;;;;;;8.05;100.00;100752.94;10358016;28;20042;-83
2023/04/22 20:45:26;;;;;;;56.05;34.45;;;;;;;8.03;100.00;100752.28;10357784;28;20095;-82
2023/04/22 20:50:31;;;;;;;60.83;37.10;;;;;;;8.01;100.00;100740.00;10384128;28;20077;-80
2023/04/22 20:55:33;;;;;;;63.40;39.03;;;;;;;7.95;100.00;100755.06;10344896;28;20038;-82
2023/04/22 21:00:33;;;;;;;60.75;40.25;;;;;;;7.91;100.00;100756.44;10341542;28;20116;-81
2023/04/22 21:05:40;;;;;;;57.50;37.83;;;;;;;7.82;100.00;100758.41;10357397;28;20125;-82
2023/04/22 21:10:41;;;;;;;56.38;35.55;;;;;;;7.73;100.00;100769.44;10328464;28;20029;-83
2023/04/22 21:15:43;;;;;;;46.50;34.78;;;;;;;7.72;100.00;100756.97;10356848;28;20541;-83
2023/04/22 21:20:44;;;;;;;49.90;35.70;;;;;;;7.74;100.00;100755.78;10346670;28;20034;-81
2023/04/22 21:25:46;;;;;;;59.28;37.65;;;;;;;7.79;100.00;100760.63;10361760;28;20064;-82
2023/04/22 21:30:46;;;;;;;60.28;37.47;;;;;;;7.76;100.00;100744.81;10356691;28;20030;-84
2023/04/22 21:35:47;;;;;;;61.17;36.92;;;;;;;7.75;100.00;100740.44;10373966;28;20593;-82
2023/04/22 21:40:47;;;;;;;67.55;38.72;;;;;;;7.77;100.00;100741.94;10356553;28;20041;-83
2023/04/22 21:45:48;;;;;;;58.85;39.50;;;;;;;7.86;100.00;100742.69;10355968;28;20053;-83
2023/04/22 21:50:48;;;;;;;63.63;40.33;;;;;;;7.96;100.00;100754.03;10356600;28;20050;-80
2023/04/22 21:55:48;;;;;;;61.97;38.80;;;;;;;8.07;100.00;100748.22;10348832;28;20682;-81
2023/04/22 22:00:49;;;;;;;65.97;42.50;;;;;;;8.18;100.00;100752.31;10355091;28;20042;-82
2023/04/22 22:05:50;;;;;;;54.08;39.58;;;;;;;8.21;100.00;100759.19;10372737;28;20527;-82
2023/04/22 22:10:50;;;;;;;61.97;42.45;;;;;;;8.28;100.00;100760.13;10355344;28;20037;-84
2023/04/22 22:15:53;;;;;;;65.82;42.63;;;;;;;8.35;100.00;100758.34;10354594;28;20046;-82
2023/04/22 22:20:53;;;;;;;55.22;37.65;;;;;;;8.40;100.00;100764.06;10355140;28;20038;-83
2023/04/22 22:25:54;;;;;;;57.38;37.22;;;;;;;8.46;100.00;100751.69;10376096;28;20499;-84